createdAt,value
2023-02-24T00:00:32.056Z,46.40
2023-02-24T00:03:13.656Z,43.60
2023-02-24T00:05:49.959Z,41.70
2023-02-24T00:08:18.378Z,43.80
2023-02-24T00:10:47.835Z,39.00
2023-02-24T00:13:22.327Z,38.80
2023-02-24T00:16:02.861Z,40.00
2023-02-24T00:18:32.722Z,38.50
2023-02-24T00:21:08.355Z,36.90
2023-02-24T00:23:38.349Z,37.20
2023-02-24T00:26:10.345Z,35.20
2023-02-24T00:28:39.114Z,31.50
2023-02-24T00:31:14.475Z,35.40
2023-02-24T00:33:45.801Z,32.30
2023-02-24T00:36:23.995Z,36.60
2023-02-24T00:38:56.273Z,30.70
2023-02-24T00:41:31.494Z,34.90
2023-02-24T00:44:07.412Z,34.10
2023-02-24T00:46:42.546Z,37.50
2023-02-24T00:49:17.649Z,38.40
2023-02-24T00:51:49.318Z,89.60
2023-02-24T00:54:17.682Z,77.00
2023-02-24T00:56:48.573Z,45.10
2023-02-24T00:59:23.037Z,39.10
2023-02-24T01:01:52.328Z,41.40
2023-02-24T01:04:21.922Z,72.30
2023-02-24T01:07:00.132Z,59.00
2023-02-24T01:09:32.139Z,52.80
2023-02-24T01:12:19.213Z,51.50
2023-02-24T01:14:51.297Z,54.50
2023-02-24T01:17:21.766Z,62.60
2023-02-24T01:19:50.455Z,44.00
2023-02-24T01:22:21.351Z,47.80
2023-02-24T01:24:49.815Z,61.20
2023-02-24T01:27:19.389Z,69.40
2023-02-24T01:29:48.941Z,57.80
2023-02-24T01:32:21.494Z,53.90
2023-02-24T01:34:53.344Z,48.60
2023-02-24T01:37:21.976Z,46.50
2023-02-24T01:39:50.740Z,43.20
2023-02-24T01:42:22.312Z,40.80
2023-02-24T01:44:51.973Z,38.90
2023-02-24T01:47:21.484Z,38.00
2023-02-24T01:49:54.764Z,41.10
2023-02-24T01:52:37.810Z,38.40
2023-02-24T01:55:24.570Z,39.70
2023-02-24T01:57:54.109Z,48.00
2023-02-24T02:00:38.334Z,42.40
2023-02-24T02:03:25.593Z,46.90
2023-02-24T02:06:01.334Z,42.40
2023-02-24T02:08:30.651Z,53.90
2023-02-24T02:11:06.419Z,40.60
2023-02-24T02:13:38.071Z,39.00
2023-02-24T02:16:21.065Z,42.60
2023-02-24T02:19:36.202Z,51.60
2023-02-24T02:22:23.549Z,36.20
2023-02-24T02:25:01.582Z,36.00
2023-02-24T02:28:04.334Z,35.60
2023-02-24T02:31:04.168Z,35.70
2023-02-24T02:34:02.961Z,34.70
2023-02-24T02:37:14.920Z,71.70
2023-02-24T02:40:37.669Z,58.70
2023-02-24T02:43:25.916Z,39.30
2023-02-24T02:46:14.919Z,39.40
2023-02-24T02:48:58.195Z,38.00
2023-02-24T02:51:38.862Z,39.00
2023-02-24T02:54:22.465Z,38.40
2023-02-24T02:56:59.602Z,39.20
2023-02-24T02:59:31.870Z,38.70
2023-02-24T03:02:11.654Z,44.50
2023-02-24T03:04:46.718Z,44.70
2023-02-24T03:07:17.857Z,42.20
2023-02-24T03:09:56.307Z,42.40
2023-02-24T03:12:30.622Z,40.50
2023-02-24T03:15:04.586Z,47.70
2023-02-24T03:17:40.893Z,41.00
2023-02-24T03:20:29.352Z,35.20
2023-02-24T03:23:25.733Z,48.20
2023-02-24T03:26:06.143Z,40.70
2023-02-24T03:28:48.820Z,40.70
2023-02-24T03:31:27.764Z,43.10
2023-02-24T03:34:15.889Z,38.50
2023-02-24T03:36:44.551Z,42.00
2023-02-24T03:39:13.273Z,44.00
2023-02-24T03:42:01.267Z,41.50
2023-02-24T03:44:30.505Z,41.20
2023-02-24T03:46:58.904Z,48.00
2023-02-24T03:49:28.216Z,45.70
2023-02-24T03:52:29.137Z,48.20
2023-02-24T03:55:28.499Z,44.80
2023-02-24T03:58:43.034Z,46.60
2023-02-24T04:01:42.082Z,46.80
2023-02-24T04:04:27.428Z,46.40
2023-02-24T04:07:12.659Z,49.20
2023-02-24T04:09:57.185Z,44.90
2023-02-24T04:12:52.329Z,47.00
2023-02-24T04:15:32.398Z,44.30
2023-02-24T04:18:08.041Z,46.60
2023-02-24T04:20:37.226Z,46.00
2023-02-24T04:23:17.001Z,44.20
2023-02-24T04:25:49.462Z,47.90
2023-02-24T04:28:21.242Z,54.10
2023-02-24T04:31:05.809Z,47.50
2023-02-24T04:33:34.363Z,57.90
2023-02-24T04:36:02.853Z,51.90
2023-02-24T04:38:31.500Z,52.20
2023-02-24T04:40:59.791Z,49.90
2023-02-24T04:43:29.458Z,52.40
2023-02-24T04:45:57.859Z,51.60
2023-02-24T04:48:26.201Z,52.20
2023-02-24T04:50:55.279Z,48.80
2023-02-24T04:53:27.255Z,47.60
2023-02-24T04:55:56.297Z,49.10
2023-02-24T04:58:29.663Z,51.30
2023-02-24T05:00:57.984Z,48.30
2023-02-24T05:03:30.078Z,55.10
2023-02-24T05:06:00.327Z,50.50
2023-02-24T05:08:30.933Z,52.30
2023-02-24T05:11:03.902Z,46.30
2023-02-24T05:13:33.830Z,46.80
2023-02-24T05:16:10.016Z,54.60
2023-02-24T05:18:38.792Z,50.90
2023-02-24T05:21:32.862Z,53.30
2023-02-24T05:24:06.533Z,52.80
2023-02-24T05:26:38.087Z,48.00
2023-02-24T05:29:07.288Z,52.20
2023-02-24T05:31:37.092Z,49.10
2023-02-24T05:34:08.136Z,51.90
2023-02-24T05:36:40.615Z,55.80
2023-02-24T05:39:12.280Z,51.60
2023-02-24T05:41:42.981Z,50.70
2023-02-24T05:44:16.096Z,47.30
2023-02-24T05:46:46.635Z,48.50
2023-02-24T05:49:26.912Z,47.50
2023-02-24T05:52:00.097Z,50.50
2023-02-24T05:54:44.130Z,46.40
2023-02-24T05:57:17.342Z,51.70
2023-02-24T05:59:46.042Z,53.20
2023-02-24T06:02:18.013Z,52.80
2023-02-24T06:04:53.905Z,47.60
2023-02-24T06:07:34.554Z,48.80
2023-02-24T06:10:07.053Z,46.60
2023-02-24T06:12:36.088Z,49.30
2023-02-24T06:15:07.746Z,43.60
2023-02-24T06:17:36.446Z,44.20
2023-02-24T06:20:15.707Z,50.70
2023-02-24T06:22:44.303Z,48.60
2023-02-24T06:25:12.712Z,48.10
2023-02-24T06:27:41.095Z,42.60
2023-02-24T06:30:10.731Z,42.50
2023-02-24T06:32:39.562Z,42.50
2023-02-24T06:35:09.238Z,44.00
2023-02-24T06:37:39.469Z,41.90
2023-02-24T06:40:17.809Z,45.70
2023-02-24T06:42:54.045Z,42.00
2023-02-24T06:45:24.422Z,43.70
2023-02-24T06:47:53.321Z,47.00
2023-02-24T06:50:21.900Z,47.40
2023-02-24T06:52:50.643Z,41.80
2023-02-24T06:55:28.384Z,33.60
2023-02-24T06:58:04.296Z,31.80
2023-02-24T07:00:40.785Z,28.40
2023-02-24T07:03:16.242Z,26.20
2023-02-24T07:08:27.200Z,22.30
2023-02-24T07:10:58.170Z,24.80
2023-02-24T07:13:30.858Z,23.30
2023-02-24T07:16:07.435Z,25.90
2023-02-24T07:18:41.757Z,20.10
2023-02-24T07:21:11.777Z,23.10
2023-02-24T07:23:41.841Z,25.30
2023-02-24T07:26:15.714Z,29.20
2023-02-24T07:28:47.008Z,27.30
2023-02-24T07:31:19.666Z,24.30
2023-02-24T07:33:48.793Z,28.30
2023-02-24T07:36:23.095Z,28.60
2023-02-24T07:38:53.988Z,33.00
2023-02-24T07:41:26.241Z,25.80
2023-02-24T07:43:55.445Z,33.40
2023-02-24T07:46:28.115Z,33.80
2023-02-24T07:48:59.325Z,27.10
2023-02-24T07:51:29.442Z,28.20
2023-02-24T07:54:00.494Z,29.60
2023-02-24T07:56:31.123Z,33.80
2023-02-24T07:59:07.918Z,33.20
2023-02-24T08:01:40.607Z,31.10
2023-02-24T08:04:12.761Z,31.60
2023-02-24T08:06:48.127Z,35.40
2023-02-24T08:09:21.038Z,28.50
2023-02-24T08:11:55.386Z,29.80
2023-02-24T08:14:35.465Z,28.10
2023-02-24T08:17:05.521Z,31.00
2023-02-24T08:19:39.830Z,29.70
2023-02-24T08:22:20.675Z,28.70
2023-02-24T08:25:05.869Z,25.50
2023-02-24T08:27:43.064Z,32.80
2023-02-24T08:30:23.556Z,28.20
2023-02-24T08:33:00.062Z,29.10
2023-02-24T08:35:37.545Z,30.40
2023-02-24T08:38:14.512Z,26.70
2023-02-24T08:40:50.932Z,26.00
2023-02-24T08:43:40.958Z,28.70
2023-02-24T08:46:18.621Z,25.20
2023-02-24T08:48:55.463Z,23.10
2023-02-24T08:51:34.947Z,24.40
2023-02-24T08:54:15.379Z,28.30
2023-02-24T08:56:55.966Z,30.70
2023-02-24T08:59:38.016Z,29.00
2023-02-24T09:02:23.067Z,28.30
2023-02-24T09:05:03.785Z,27.00
2023-02-24T09:07:40.674Z,23.80
2023-02-24T09:10:18.206Z,23.80
2023-02-24T09:12:49.117Z,26.60
2023-02-24T09:15:17.856Z,25.80
2023-02-24T09:17:46.334Z,20.80
2023-02-24T09:20:39.132Z,22.00
2023-02-24T09:23:08.668Z,19.00
2023-02-24T09:25:44.747Z,21.20
2023-02-24T09:28:19.581Z,14.80
2023-02-24T09:31:04.855Z,17.90
2023-02-24T09:33:41.260Z,17.70
2023-02-24T09:36:28.387Z,17.40
2023-02-24T09:38:59.629Z,17.20
2023-02-24T09:42:07.608Z,16.20
2023-02-24T09:44:39.361Z,21.00
2023-02-24T09:47:51.305Z,17.30
2023-02-24T09:50:40.269Z,19.80
2023-02-24T09:53:19.999Z,27.00
2023-02-24T09:56:05.346Z,19.10
2023-02-24T09:58:47.980Z,18.80
2023-02-24T10:01:50.753Z,16.20
2023-02-24T10:04:49.271Z,21.20
2023-02-24T10:07:38.426Z,19.10
2023-02-24T10:10:36.358Z,15.60
2023-02-24T10:13:30.397Z,18.10
2023-02-24T10:16:06.981Z,15.70
2023-02-24T10:19:17.540Z,16.10
2023-02-24T10:22:02.500Z,16.90
2023-02-24T10:24:47.659Z,18.30
2023-02-24T10:27:27.221Z,13.90
2023-02-24T10:30:28.041Z,14.60
2023-02-24T10:33:02.596Z,17.10
2023-02-24T10:35:34.163Z,17.40
2023-02-24T10:38:07.135Z,13.80
2023-02-24T10:40:57.028Z,12.80
2023-02-24T10:43:30.552Z,12.20
2023-02-24T10:46:17.234Z,16.40
2023-02-24T10:49:00.652Z,13.70
2023-02-24T10:51:42.384Z,16.50
2023-02-24T10:54:48.373Z,16.40
2023-02-24T10:57:37.365Z,14.20
2023-02-24T11:00:31.133Z,16.50
2023-02-24T11:03:10.650Z,13.50
2023-02-24T11:06:04.697Z,10.10
2023-02-24T11:08:39.740Z,14.10
2023-02-24T11:11:26.099Z,14.10
2023-02-24T11:14:30.384Z,13.40
2023-02-24T11:17:17.520Z,17.20
2023-02-24T11:20:01.684Z,14.20
2023-02-24T11:22:39.538Z,15.10
2023-02-24T11:25:39.624Z,17.30
2023-02-24T11:28:55.807Z,9.80
2023-02-24T11:31:53.607Z,10.70
2023-02-24T11:34:39.227Z,11.20
2023-02-24T11:37:59.081Z,10.30
2023-02-24T11:40:36.586Z,11.90
2023-02-24T11:43:14.140Z,10.60
2023-02-24T11:45:53.473Z,11.30
2023-02-24T11:48:26.730Z,10.70
2023-02-24T11:51:20.745Z,11.90
2023-02-24T11:53:58.322Z,12.70
2023-02-24T11:56:44.213Z,14.30
2023-02-24T11:59:38.342Z,11.80
2023-02-24T12:02:35.756Z,9.40
2023-02-24T12:05:17.000Z,12.00
2023-02-24T12:07:59.229Z,10.30
2023-02-24T12:10:32.283Z,11.80
2023-02-24T12:13:19.384Z,10.40
2023-02-24T12:16:03.153Z,7.80
2023-02-24T12:18:43.617Z,7.60
2023-02-24T12:21:32.314Z,8.10
2023-02-24T12:24:02.245Z,7.40
2023-02-24T12:26:48.228Z,7.50
2023-02-24T12:29:49.906Z,6.50
2023-02-24T12:32:47.321Z,5.90
2023-02-24T12:35:33.006Z,6.80
2023-02-24T12:38:34.705Z,7.20
2023-02-24T12:41:14.755Z,7.60
2023-02-24T12:43:55.482Z,6.40
2023-02-24T12:46:38.448Z,5.40
2023-02-24T12:49:42.831Z,7.60
2023-02-24T12:52:48.109Z,6.60
2023-02-24T12:55:52.111Z,6.20
2023-02-24T12:58:26.637Z,8.30
2023-02-24T13:01:09.106Z,5.90
2023-02-24T13:04:06.942Z,6.90
2023-02-24T13:07:01.205Z,8.70
2023-02-24T13:09:51.329Z,6.10
2023-02-24T13:12:49.050Z,7.10
2023-02-24T13:15:27.325Z,6.10
2023-02-24T13:17:58.494Z,6.80
2023-02-24T13:20:38.731Z,6.60
2023-02-24T13:23:22.004Z,6.60
2023-02-24T13:25:54.041Z,6.80
2023-02-24T13:28:36.413Z,6.80
2023-02-24T13:31:13.592Z,5.40
2023-02-24T13:33:44.828Z,6.10
2023-02-24T13:36:17.037Z,6.30
2023-02-24T13:38:49.442Z,6.40
2023-02-24T13:41:40.926Z,5.90
2023-02-24T13:44:18.809Z,7.10
2023-02-24T13:47:14.610Z,7.20
2023-02-24T13:50:39.296Z,10.10
2023-02-24T13:53:23.849Z,18.20
2023-02-24T13:56:16.538Z,15.60
2023-02-24T13:59:11.297Z,6.90
2023-02-24T14:01:58.076Z,5.40
2023-02-24T14:04:36.192Z,9.20
2023-02-24T14:07:11.708Z,6.10
2023-02-24T14:09:46.722Z,6.10
2023-02-24T14:12:28.943Z,5.30
2023-02-24T14:14:58.029Z,5.30
2023-02-24T14:17:35.880Z,5.40
2023-02-24T14:20:05.206Z,7.00
2023-02-24T14:22:34.742Z,6.80
2023-02-24T14:25:09.313Z,5.30
2023-02-24T14:27:39.021Z,35.00
2023-02-24T14:30:18.975Z,23.00
2023-02-24T14:32:48.330Z,32.60
2023-02-24T14:35:49.430Z,37.40
2023-02-24T14:38:39.331Z,15.90
2023-02-24T14:41:24.693Z,27.50
2023-02-24T14:43:53.899Z,32.70
2023-02-24T14:46:24.019Z,8.20
2023-02-24T14:48:56.211Z,8.70
2023-02-24T14:51:35.510Z,9.80
2023-02-24T14:54:08.121Z,6.30
2023-02-24T14:56:37.067Z,6.60
2023-02-24T14:59:33.755Z,15.30
2023-02-24T15:02:05.534Z,6.70
2023-02-24T15:04:39.422Z,6.10
2023-02-24T15:07:17.776Z,5.70
2023-02-24T15:09:48.351Z,13.00
2023-02-24T15:12:32.184Z,23.00
2023-02-24T15:15:13.574Z,9.80
2023-02-24T15:17:42.019Z,6.30
2023-02-24T15:20:35.406Z,5.80
2023-02-24T15:23:04.408Z,11.20
2023-02-24T15:25:46.258Z,8.30
2023-02-24T15:28:34.200Z,6.20
2023-02-24T15:31:16.170Z,4.90
2023-02-24T15:33:58.119Z,5.60
2023-02-24T15:36:36.749Z,6.00
2023-02-24T15:39:17.065Z,9.90
2023-02-24T15:41:48.304Z,7.10
2023-02-24T15:44:31.842Z,29.40
2023-02-24T15:47:21.418Z,18.10
2023-02-24T15:49:50.005Z,15.80
2023-02-24T15:52:24.358Z,15.20
2023-02-24T15:54:54.347Z,13.20
2023-02-24T15:57:23.534Z,10.30
2023-02-24T15:59:52.272Z,12.40
2023-02-24T16:02:23.625Z,8.70
2023-02-24T16:04:52.430Z,20.50
2023-02-24T16:07:26.749Z,25.50
2023-02-24T16:09:57.747Z,37.70
2023-02-24T16:12:34.146Z,32.80
2023-02-24T16:15:06.820Z,33.80
2023-02-24T16:17:41.436Z,167.00
2023-02-24T16:20:18.689Z,101.80
2023-02-24T16:22:47.158Z,42.80
2023-02-24T16:25:17.012Z,36.90
2023-02-24T16:27:45.564Z,38.90
2023-02-24T16:30:22.127Z,35.00
2023-02-24T16:32:51.576Z,29.50
2023-02-24T16:35:20.271Z,46.00
2023-02-24T16:37:49.083Z,48.80
2023-02-24T16:40:30.668Z,70.30
2023-02-24T16:42:59.256Z,49.80
2023-02-24T16:45:30.704Z,36.10
2023-02-24T16:48:02.560Z,34.00
2023-02-24T16:50:40.901Z,52.80
2023-02-24T16:53:18.907Z,41.90
2023-02-24T16:55:47.618Z,43.70
2023-02-24T16:58:16.357Z,44.30
2023-02-24T17:00:49.842Z,38.00
2023-02-24T17:03:25.109Z,52.70
2023-02-24T17:05:54.595Z,53.40
2023-02-24T17:08:23.611Z,43.80
2023-02-24T17:10:52.682Z,48.40
2023-02-24T17:13:22.087Z,45.60
2023-02-24T17:15:57.309Z,48.40
2023-02-24T17:20:55.059Z,19.40
2023-02-24T17:23:23.881Z,13.90
2023-02-24T17:26:00.204Z,9.00
2023-02-24T17:28:28.741Z,15.70
2023-02-24T17:30:57.572Z,19.40
2023-02-24T17:33:25.991Z,14.00
2023-02-24T17:35:54.341Z,25.20
2023-02-24T17:38:24.174Z,17.70
2023-02-24T17:40:52.760Z,9.70
2023-02-24T17:43:21.163Z,18.80
2023-02-24T17:45:51.698Z,14.30
2023-02-24T17:48:21.551Z,9.90
2023-02-24T17:50:50.004Z,16.10
2023-02-24T17:53:18.295Z,17.60
2023-02-24T17:56:01.840Z,15.60
2023-02-24T17:58:32.333Z,12.10
2023-02-24T18:01:05.690Z,16.70
2023-02-24T18:03:36.135Z,15.30
2023-02-24T18:06:10.215Z,10.70
2023-02-24T18:08:39.745Z,17.00
2023-02-24T18:11:16.099Z,10.40
2023-02-24T18:13:45.178Z,11.00
2023-02-24T18:16:15.343Z,12.90
2023-02-24T18:18:43.887Z,20.40
2023-02-24T18:21:12.572Z,18.10
2023-02-24T18:23:41.034Z,19.30
2023-02-24T18:26:12.197Z,23.20
2023-02-24T18:28:40.981Z,22.00
2023-02-24T18:31:12.716Z,32.20
2023-02-24T18:33:41.770Z,16.10
2023-02-24T18:36:11.180Z,23.30
2023-02-24T18:38:40.024Z,16.00
2023-02-24T18:41:15.725Z,16.00
2023-02-24T18:43:47.986Z,16.50
2023-02-24T18:46:18.578Z,19.80
2023-02-24T18:48:48.133Z,17.70
2023-02-24T18:51:22.026Z,16.70
2023-02-24T18:53:52.814Z,15.60
2023-02-24T18:56:25.699Z,22.10
2023-02-24T18:58:56.926Z,17.50
2023-02-24T19:01:41.299Z,17.70
2023-02-24T19:04:09.732Z,16.10
2023-02-24T19:06:38.083Z,17.50
2023-02-24T19:09:10.492Z,20.10
2023-02-24T19:11:40.873Z,20.50
2023-02-24T19:14:12.172Z,24.00
2023-02-24T19:16:41.116Z,23.70
2023-02-24T19:19:14.514Z,18.70
2023-02-24T19:21:45.552Z,18.90
2023-02-24T19:24:14.554Z,15.60
2023-02-24T19:26:44.483Z,20.60
2023-02-24T19:29:13.794Z,17.90
2023-02-24T19:31:42.693Z,13.30
2023-02-24T19:34:15.270Z,13.60
2023-02-24T19:36:43.668Z,10.80
2023-02-24T19:39:15.312Z,8.90
2023-02-24T19:41:44.356Z,8.00
2023-02-24T19:44:14.164Z,6.50
2023-02-24T19:46:43.135Z,9.20
2023-02-24T19:49:11.522Z,10.00
2023-02-24T19:51:40.151Z,8.00
2023-02-24T19:54:12.356Z,9.10
2023-02-24T19:56:40.769Z,7.90
2023-02-24T19:59:10.786Z,7.50
2023-02-24T20:01:39.314Z,7.90
2023-02-24T20:04:08.378Z,6.80
2023-02-24T20:06:43.472Z,11.10
2023-02-24T20:09:22.226Z,10.00
2023-02-24T20:11:51.449Z,7.20
2023-02-24T20:14:20.647Z,8.60
2023-02-24T20:16:49.152Z,7.70
2023-02-24T20:19:18.135Z,7.90
2023-02-24T20:21:47.596Z,11.20
2023-02-24T20:24:17.994Z,9.70
2023-02-24T20:26:49.668Z,13.70
2023-02-24T20:29:21.106Z,12.10
2023-02-24T20:31:49.892Z,11.70
2023-02-24T20:34:18.472Z,11.20
2023-02-24T20:36:46.880Z,10.40
2023-02-24T20:39:15.557Z,8.80
2023-02-24T20:41:44.185Z,9.60
2023-02-24T20:44:12.902Z,9.00
2023-02-24T20:46:41.493Z,10.50
2023-02-24T20:49:14.686Z,11.20
2023-02-24T20:51:44.014Z,9.10
2023-02-24T20:54:13.725Z,11.00
2023-02-24T20:56:45.470Z,17.00
2023-02-24T20:59:21.979Z,10.30
2023-02-24T21:01:51.065Z,9.30
2023-02-24T21:04:21.662Z,11.50
2023-02-24T21:06:51.979Z,14.00
2023-02-24T21:09:20.441Z,17.40
2023-02-24T21:11:48.847Z,14.40
2023-02-24T21:14:17.645Z,15.20
2023-02-24T21:16:46.306Z,15.10
2023-02-24T21:19:15.067Z,16.20
2023-02-24T21:21:43.445Z,13.30
2023-02-24T21:24:12.087Z,16.00
2023-02-24T21:26:40.531Z,15.70
2023-02-24T21:29:08.890Z,16.10
2023-02-24T21:31:37.468Z,12.50
2023-02-24T21:34:06.323Z,12.70
2023-02-24T21:36:36.083Z,14.90
2023-02-24T21:39:06.361Z,11.80
2023-02-24T21:41:37.510Z,15.20
2023-02-24T21:44:06.019Z,15.20
2023-02-24T21:46:34.515Z,13.10
2023-02-24T21:49:03.280Z,13.70
2023-02-24T21:51:31.673Z,22.00
2023-02-24T21:54:00.865Z,15.80
2023-02-24T21:56:30.448Z,15.80
2023-02-24T21:59:03.002Z,15.10
2023-02-24T22:01:50.022Z,17.60
2023-02-24T22:04:19.225Z,17.60
2023-02-24T22:06:50.340Z,16.50
2023-02-24T22:09:19.855Z,17.90
2023-02-24T22:11:50.134Z,20.30
2023-02-24T22:14:19.074Z,16.60
2023-02-24T22:16:47.823Z,18.20
2023-02-24T22:19:16.426Z,16.20
2023-02-24T22:21:45.156Z,16.90
2023-02-24T22:24:16.277Z,13.40
2023-02-24T22:26:45.110Z,18.00
2023-02-24T22:29:13.708Z,14.80
2023-02-24T22:31:43.758Z,14.00
2023-02-24T22:34:14.342Z,17.40
2023-02-24T22:36:42.922Z,14.40
2023-02-24T22:39:16.549Z,13.40
2023-02-24T22:41:46.817Z,16.30
2023-02-24T22:44:19.140Z,14.90
2023-02-24T22:46:48.364Z,17.60
2023-02-24T22:49:17.210Z,16.00
2023-02-24T22:51:45.832Z,11.80
2023-02-24T22:54:14.774Z,13.00
2023-02-24T22:56:43.438Z,11.70
2023-02-24T22:59:12.335Z,12.30
2023-02-24T23:01:42.671Z,13.40
2023-02-24T23:04:18.115Z,12.10
2023-02-24T23:09:19.775Z,7.70
2023-02-24T23:11:48.462Z,10.50
2023-02-24T23:14:17.482Z,8.80
2023-02-24T23:16:53.396Z,7.10
2023-02-24T23:19:22.927Z,6.80
2023-02-24T23:21:53.614Z,5.00
2023-02-24T23:24:22.303Z,6.00
2023-02-24T23:26:54.239Z,5.80
2023-02-24T23:29:24.409Z,5.50
2023-02-24T23:31:53.815Z,5.70
2023-02-24T23:34:22.277Z,5.30
2023-02-24T23:36:50.783Z,4.10
2023-02-24T23:39:23.866Z,4.40
2023-02-24T23:41:57.501Z,4.50
2023-02-24T23:44:26.312Z,4.40
2023-02-24T23:46:54.953Z,4.40
2023-02-24T23:49:23.997Z,4.60
2023-02-24T23:51:52.348Z,4.40
2023-02-24T23:54:20.761Z,4.90
2023-02-24T23:56:49.163Z,3.20
2023-02-24T23:59:17.568Z,3.60
